createdAt,value
2023-04-14T00:00:50.075Z,1001.17
2023-04-14T00:01:50.115Z,1001.18
2023-04-14T00:02:50.201Z,1001.15
2023-04-14T00:03:50.200Z,1001.13
2023-04-14T00:04:50.123Z,1001.12
2023-04-14T00:05:50.023Z,1001.09
2023-04-14T00:06:50.003Z,1001.12
2023-04-14T00:07:50.012Z,1001.07
2023-04-14T00:08:49.985Z,1001.06
2023-04-14T00:09:49.972Z,1001.08
2023-04-14T00:10:49.958Z,1001.08
2023-04-14T00:11:49.955Z,1001.08
2023-04-14T00:12:49.966Z,1001.09
2023-04-14T00:13:49.926Z,1001.06
2023-04-14T00:14:49.912Z,1001.08
2023-04-14T00:15:49.905Z,1001.12
2023-04-14T00:16:49.926Z,1001.13
2023-04-14T00:17:49.936Z,1001.11
2023-04-14T00:18:50.403Z,1001.10
2023-04-14T00:19:49.863Z,1001.09
2023-04-14T00:20:49.859Z,1001.12
2023-04-14T00:21:49.837Z,1001.16
2023-04-14T00:22:49.843Z,1001.12
2023-04-14T00:23:49.816Z,1001.21
2023-04-14T00:24:49.796Z,1001.19
2023-04-14T00:25:49.803Z,1001.16
2023-04-14T00:26:49.777Z,1001.22
2023-04-14T00:27:49.815Z,1001.23
2023-04-14T00:28:49.768Z,1001.23
2023-04-14T00:29:49.751Z,1001.27
2023-04-14T00:30:49.774Z,1001.24
2023-04-14T00:31:49.728Z,1001.28
2023-04-14T00:32:49.813Z,1001.25
2023-04-14T00:33:49.713Z,1001.34
2023-04-14T00:34:49.694Z,1001.27
2023-04-14T00:35:49.677Z,1001.30
2023-04-14T00:36:49.666Z,1001.27
2023-04-14T00:37:49.687Z,1001.30
2023-04-14T00:38:49.662Z,1001.31
2023-04-14T00:39:49.632Z,1001.31
2023-04-14T00:40:49.627Z,1001.28
2023-04-14T00:41:49.620Z,1001.31
2023-04-14T00:42:49.632Z,1001.29
2023-04-14T00:43:49.596Z,1001.26
2023-04-14T00:44:49.603Z,1001.31
2023-04-14T00:45:49.571Z,1001.35
2023-04-14T00:46:49.594Z,1001.32
2023-04-14T00:47:49.587Z,1001.33
2023-04-14T00:48:49.549Z,1001.32
2023-04-14T00:49:49.527Z,1001.35
2023-04-14T00:50:49.510Z,1001.32
2023-04-14T00:51:49.505Z,1001.30
2023-04-14T00:52:49.507Z,1001.36
2023-04-14T00:53:49.481Z,1001.37
2023-04-14T00:54:49.471Z,1001.40
2023-04-14T00:55:49.465Z,1001.38
2023-04-14T00:56:49.450Z,1001.42
2023-04-14T00:57:49.468Z,1001.41
2023-04-14T00:58:49.442Z,1001.46
2023-04-14T00:59:49.438Z,1001.45
2023-04-14T01:00:49.404Z,1001.41
2023-04-14T01:01:49.446Z,1001.43
2023-04-14T01:02:49.547Z,1001.43
2023-04-14T01:03:49.575Z,1001.44
2023-04-14T01:04:54.313Z,1001.46
2023-04-14T01:05:49.357Z,1001.45
2023-04-14T01:06:49.341Z,1001.44
2023-04-14T01:07:49.338Z,1001.42
2023-04-14T01:08:49.319Z,1001.46
2023-04-14T01:09:49.314Z,1001.48
2023-04-14T01:10:49.298Z,1001.47
2023-04-14T01:11:49.273Z,1001.48
2023-04-14T01:12:49.290Z,1001.47
2023-04-14T01:13:49.277Z,1001.49
2023-04-14T01:14:49.256Z,1001.47
2023-04-14T01:15:49.305Z,1001.46
2023-04-14T01:16:49.229Z,1001.53
2023-04-14T01:17:49.314Z,1001.49
2023-04-14T01:18:49.205Z,1001.47
2023-04-14T01:19:49.193Z,1001.45
2023-04-14T01:20:49.184Z,1001.52
2023-04-14T01:21:49.175Z,1001.50
2023-04-14T01:22:49.192Z,1001.59
2023-04-14T01:23:49.150Z,1001.58
2023-04-14T01:24:49.147Z,1001.59
2023-04-14T01:25:49.130Z,1001.63
2023-04-14T01:26:49.117Z,1001.58
2023-04-14T01:27:49.131Z,1001.58
2023-04-14T01:28:49.097Z,1001.61
2023-04-14T01:29:49.090Z,1001.59
2023-04-14T01:30:49.077Z,1001.57
2023-04-14T01:31:49.125Z,1001.58
2023-04-14T01:32:49.103Z,1001.61
2023-04-14T01:33:49.061Z,1001.60
2023-04-14T01:34:49.041Z,1001.58
2023-04-14T01:35:49.022Z,1001.63
2023-04-14T01:36:49.009Z,1001.64
2023-04-14T01:37:49.025Z,1001.65
2023-04-14T01:38:48.994Z,1001.65
2023-04-14T01:39:48.979Z,1001.60
2023-04-14T01:40:48.979Z,1001.61
2023-04-14T01:41:48.953Z,1001.62
2023-04-14T01:42:48.975Z,1001.60
2023-04-14T01:43:48.941Z,1001.63
2023-04-14T01:44:48.929Z,1001.61
2023-04-14T01:45:49.026Z,1001.60
2023-04-14T01:46:48.894Z,1001.65
2023-04-14T01:47:48.981Z,1001.60
2023-04-14T01:48:48.880Z,1001.63
2023-04-14T01:49:48.960Z,1001.62
2023-04-14T01:50:48.855Z,1001.58
2023-04-14T01:51:48.844Z,1001.60
2023-04-14T01:52:48.862Z,1001.59
2023-04-14T01:53:48.826Z,1001.62
2023-04-14T01:54:48.827Z,1001.57
2023-04-14T01:55:48.816Z,1001.61
2023-04-14T01:56:48.813Z,1001.61
2023-04-14T01:57:48.812Z,1001.62
2023-04-14T01:58:48.764Z,1001.64
2023-04-14T01:59:48.767Z,1001.61
2023-04-14T02:00:48.756Z,1001.65
2023-04-14T02:01:48.785Z,1001.62
2023-04-14T02:02:48.878Z,1001.56
2023-04-14T02:03:48.798Z,1001.57
2023-04-14T02:04:48.705Z,1001.57
2023-04-14T02:05:48.688Z,1001.59
2023-04-14T02:06:48.671Z,1001.58
2023-04-14T02:07:48.687Z,1001.59
2023-04-14T02:08:48.670Z,1001.55
2023-04-14T02:09:48.665Z,1001.60
2023-04-14T02:10:48.636Z,1001.62
2023-04-14T02:11:48.629Z,1001.64
2023-04-14T02:12:48.638Z,1001.67
2023-04-14T02:13:48.608Z,1001.69
2023-04-14T02:14:48.595Z,1001.67
2023-04-14T02:15:48.620Z,1001.71
2023-04-14T02:16:48.582Z,1001.72
2023-04-14T02:17:48.605Z,1001.70
2023-04-14T02:18:48.543Z,1001.70
2023-04-14T02:19:48.532Z,1001.74
2023-04-14T02:20:48.512Z,1001.76
2023-04-14T02:21:48.518Z,1001.78
2023-04-14T02:22:48.517Z,1001.81
2023-04-14T02:23:48.493Z,1001.82
2023-04-14T02:24:48.474Z,1001.83
2023-04-14T02:25:48.472Z,1001.79
2023-04-14T02:26:48.451Z,1001.79
2023-04-14T02:27:48.494Z,1001.80
2023-04-14T02:28:48.432Z,1001.86
2023-04-14T02:29:48.426Z,1001.84
2023-04-14T02:30:48.489Z,1001.83
2023-04-14T02:31:48.392Z,1001.85
2023-04-14T02:32:48.456Z,1001.83
2023-04-14T02:33:48.380Z,1001.84
2023-04-14T02:34:48.397Z,1001.79
2023-04-14T02:35:48.377Z,1001.83
2023-04-14T02:36:48.347Z,1001.84
2023-04-14T02:37:48.348Z,1001.80
2023-04-14T02:38:48.338Z,1001.82
2023-04-14T02:39:48.306Z,1001.85
2023-04-14T02:40:48.297Z,1001.84
2023-04-14T02:41:48.300Z,1001.85
2023-04-14T02:42:48.293Z,1001.84
2023-04-14T02:43:48.265Z,1001.84
2023-04-14T02:44:48.247Z,1001.90
2023-04-14T02:45:48.266Z,1001.90
2023-04-14T02:46:48.227Z,1001.89
2023-04-14T02:47:48.261Z,1001.90
2023-04-14T02:48:48.208Z,1001.96
2023-04-14T02:49:48.195Z,1001.96
2023-04-14T02:50:48.183Z,1001.98
2023-04-14T02:51:48.174Z,1001.98
2023-04-14T02:52:48.197Z,1002.00
2023-04-14T02:53:48.161Z,1002.01
2023-04-14T02:54:48.140Z,1001.99
2023-04-14T02:55:48.136Z,1002.00
2023-04-14T02:56:48.115Z,1002.00
2023-04-14T02:57:48.129Z,1001.98
2023-04-14T02:58:48.101Z,1002.02
2023-04-14T02:59:48.109Z,1002.03
2023-04-14T03:00:48.087Z,1002.05
2023-04-14T03:01:48.146Z,1002.00
2023-04-14T03:02:48.163Z,1002.02
2023-04-14T03:03:48.094Z,1002.01
2023-04-14T03:04:48.036Z,1001.97
2023-04-14T03:05:48.020Z,1002.02
2023-04-14T03:06:48.005Z,1001.96
2023-04-14T03:07:48.019Z,1001.97
2023-04-14T03:08:47.995Z,1001.98
2023-04-14T03:09:47.979Z,1001.93
2023-04-14T03:10:47.962Z,1001.94
2023-04-14T03:11:47.956Z,1001.94
2023-04-14T03:12:47.973Z,1001.96
2023-04-14T03:13:47.934Z,1001.95
2023-04-14T03:14:47.930Z,1001.95
2023-04-14T03:15:47.978Z,1001.92
2023-04-14T03:16:47.892Z,1001.97
2023-04-14T03:17:47.969Z,1001.95
2023-04-14T03:18:47.875Z,1001.95
2023-04-14T03:19:47.863Z,1001.97
2023-04-14T03:20:47.865Z,1001.97
2023-04-14T03:21:47.841Z,1001.99
2023-04-14T03:22:47.845Z,1001.99
2023-04-14T03:23:47.822Z,1002.00
2023-04-14T03:24:47.896Z,1001.98
2023-04-14T03:25:47.804Z,1001.97
2023-04-14T03:26:47.784Z,1001.94
2023-04-14T03:27:47.802Z,1001.96
2023-04-14T03:28:47.755Z,1001.98
2023-04-14T03:29:47.756Z,1002.00
2023-04-14T03:30:47.745Z,1001.99
2023-04-14T03:31:47.779Z,1002.03
2023-04-14T03:32:47.769Z,1002.05
2023-04-14T03:33:47.717Z,1002.02
2023-04-14T03:34:47.711Z,1001.97
2023-04-14T03:35:47.716Z,1001.97
2023-04-14T03:36:47.667Z,1001.98
2023-04-14T03:37:47.679Z,1001.96
2023-04-14T03:38:47.644Z,1001.99
2023-04-14T03:39:47.659Z,1002.01
2023-04-14T03:40:47.658Z,1001.98
2023-04-14T03:41:47.642Z,1002.01
2023-04-14T03:42:47.622Z,1002.00
2023-04-14T03:43:47.606Z,1002.01
2023-04-14T03:44:47.580Z,1002.03
2023-04-14T03:45:47.573Z,1002.04
2023-04-14T03:46:47.564Z,1002.00
2023-04-14T03:47:47.632Z,1001.99
2023-04-14T03:48:47.533Z,1002.03
2023-04-14T03:49:47.534Z,1002.05
2023-04-14T03:50:47.521Z,1002.11
2023-04-14T03:51:47.508Z,1002.06
2023-04-14T03:52:47.516Z,1002.05
2023-04-14T03:53:47.489Z,1002.09
2023-04-14T03:54:47.480Z,1002.15
2023-04-14T03:55:47.463Z,1002.19
2023-04-14T03:56:47.447Z,1002.20
2023-04-14T03:57:47.461Z,1002.20
2023-04-14T03:58:47.438Z,1002.20
2023-04-14T03:59:47.419Z,1002.19
2023-04-14T04:00:47.404Z,1002.17
2023-04-14T04:01:47.467Z,1002.17
2023-04-14T04:02:47.625Z,1002.18
2023-04-14T04:03:47.587Z,1002.17
2023-04-14T04:04:47.398Z,1002.15
2023-04-14T04:05:47.350Z,1002.16
2023-04-14T04:06:47.347Z,1002.17
2023-04-14T04:07:47.336Z,1002.17
2023-04-14T04:08:47.330Z,1002.21
2023-04-14T04:09:47.309Z,1002.17
2023-04-14T04:10:47.289Z,1002.14
2023-04-14T04:11:47.278Z,1002.17
2023-04-14T04:12:47.275Z,1002.13
2023-04-14T04:13:47.278Z,1002.16
2023-04-14T04:14:47.243Z,1002.13
2023-04-14T04:15:47.253Z,1002.16
2023-04-14T04:16:47.276Z,1002.16
2023-04-14T04:17:47.310Z,1002.17
2023-04-14T04:18:47.223Z,1002.18
2023-04-14T04:19:47.195Z,1002.19
2023-04-14T04:20:47.198Z,1002.23
2023-04-14T04:21:47.185Z,1002.17
2023-04-14T04:22:47.153Z,1002.20
2023-04-14T04:23:47.173Z,1002.21
2023-04-14T04:24:47.155Z,1002.22
2023-04-14T04:25:47.128Z,1002.27
2023-04-14T04:26:47.119Z,1002.29
2023-04-14T04:27:47.106Z,1002.31
2023-04-14T04:28:47.120Z,1002.42
2023-04-14T04:29:47.082Z,1002.36
2023-04-14T04:30:47.089Z,1002.39
2023-04-14T04:31:47.104Z,1002.34
2023-04-14T04:32:47.140Z,1002.34
2023-04-14T04:33:47.091Z,1002.30
2023-04-14T04:34:47.032Z,1002.33
2023-04-14T04:35:47.045Z,1002.33
2023-04-14T04:36:47.014Z,1002.33
2023-04-14T04:37:47.052Z,1002.31
2023-04-14T04:38:47.013Z,1002.31
2023-04-14T04:39:46.985Z,1002.41
2023-04-14T04:40:47.107Z,1002.39
2023-04-14T04:41:46.989Z,1002.32
2023-04-14T04:42:46.950Z,1002.29
2023-04-14T04:43:46.981Z,1002.29
2023-04-14T04:44:46.962Z,1002.29
2023-04-14T04:45:46.995Z,1002.32
2023-04-14T04:46:46.900Z,1002.32
2023-04-14T04:47:46.945Z,1002.31
2023-04-14T04:48:46.900Z,1002.27
2023-04-14T04:49:46.894Z,1002.26
2023-04-14T04:50:46.885Z,1002.35
2023-04-14T04:51:46.838Z,1002.33
2023-04-14T04:52:46.881Z,1002.33
2023-04-14T04:53:46.843Z,1002.34
2023-04-14T04:54:46.801Z,1002.31
2023-04-14T04:55:46.804Z,1002.34
2023-04-14T04:56:46.812Z,1002.33
2023-04-14T04:57:46.788Z,1002.32
2023-04-14T04:58:46.782Z,1002.33
2023-04-14T04:59:46.764Z,1002.30
2023-04-14T05:00:46.740Z,1002.31
2023-04-14T05:01:46.834Z,1002.33
2023-04-14T05:02:46.814Z,1002.34
2023-04-14T05:03:46.739Z,1002.35
2023-04-14T05:04:46.734Z,1002.35
2023-04-14T05:05:46.690Z,1002.33
2023-04-14T05:06:46.676Z,1002.34
2023-04-14T05:07:46.662Z,1002.33
2023-04-14T05:08:46.680Z,1002.32
2023-04-14T05:09:46.653Z,1002.36
2023-04-14T05:10:46.637Z,1002.33
2023-04-14T05:11:46.642Z,1002.43
2023-04-14T05:12:46.631Z,1002.37
2023-04-14T05:13:46.629Z,1002.37
2023-04-14T05:14:46.583Z,1002.45
2023-04-14T05:15:46.598Z,1002.39
2023-04-14T05:16:46.565Z,1002.39
2023-04-14T05:17:46.587Z,1002.41
2023-04-14T05:18:46.584Z,1002.36
2023-04-14T05:19:46.569Z,1002.35
2023-04-14T05:20:46.529Z,1002.34
2023-04-14T05:21:46.520Z,1002.36
2023-04-14T05:22:46.503Z,1002.37
2023-04-14T05:23:46.529Z,1002.35
2023-04-14T05:24:46.478Z,1002.39
2023-04-14T05:25:47.632Z,1002.41
2023-04-14T05:27:01.802Z,1002.45
2023-04-14T05:27:46.454Z,1002.44
2023-04-14T05:28:46.476Z,1002.46
2023-04-14T05:29:46.423Z,1002.46
2023-04-14T05:30:46.472Z,1002.47
2023-04-14T05:31:46.496Z,1002.49
2023-04-14T05:32:46.420Z,1002.47
2023-04-14T05:33:46.407Z,1002.57
2023-04-14T05:34:46.371Z,1002.48
2023-04-14T05:35:46.359Z,1002.52
2023-04-14T05:36:46.408Z,1002.54
2023-04-14T05:37:46.351Z,1002.53
2023-04-14T05:38:46.350Z,1002.56
2023-04-14T05:39:46.312Z,1002.53
2023-04-14T05:40:46.309Z,1002.60
2023-04-14T05:41:46.297Z,1002.61
2023-04-14T05:42:46.288Z,1002.62
2023-04-14T05:43:46.282Z,1002.61
2023-04-14T05:44:46.258Z,1002.65
2023-04-14T05:45:46.244Z,1002.64
2023-04-14T05:46:46.284Z,1002.57
2023-04-14T05:47:47.999Z,1002.62
2023-04-14T05:48:46.228Z,1002.56
2023-04-14T05:49:46.199Z,1002.60
2023-04-14T05:50:46.200Z,1002.56
2023-04-14T05:51:46.180Z,1002.59
2023-04-14T05:52:46.168Z,1002.57
2023-04-14T05:53:46.186Z,1002.57
2023-04-14T05:54:46.275Z,1002.53
2023-04-14T05:55:46.128Z,1002.57
2023-04-14T05:56:46.122Z,1002.52
2023-04-14T05:57:46.110Z,1002.54
2023-04-14T05:58:46.141Z,1002.55
2023-04-14T05:59:46.096Z,1002.49
2023-04-14T06:00:46.093Z,1002.48
2023-04-14T06:01:46.176Z,1002.48
2023-04-14T06:02:46.264Z,1002.48
2023-04-14T06:03:46.315Z,1002.48
2023-04-14T06:04:46.145Z,1002.47
2023-04-14T06:05:46.020Z,1002.46
2023-04-14T06:06:46.022Z,1002.41
2023-04-14T06:07:46.000Z,1002.46
2023-04-14T06:08:46.012Z,1002.47
2023-04-14T06:09:45.973Z,1002.47
2023-04-14T06:10:45.964Z,1002.44
2023-04-14T06:11:45.953Z,1002.43
2023-04-14T06:12:45.942Z,1002.45
2023-04-14T06:13:45.953Z,1002.45
2023-04-14T06:14:45.936Z,1002.48
2023-04-14T06:15:45.909Z,1002.43
2023-04-14T06:16:45.969Z,1002.45
2023-04-14T06:17:45.955Z,1002.44
2023-04-14T06:18:45.902Z,1002.41
2023-04-14T06:19:45.873Z,1002.39
2023-04-14T06:20:45.857Z,1002.45
2023-04-14T06:21:45.843Z,1002.48
2023-04-14T06:22:45.837Z,1002.50
2023-04-14T06:23:45.842Z,1002.49
2023-04-14T06:24:45.816Z,1002.49
2023-04-14T06:25:45.799Z,1002.50
2023-04-14T06:26:45.822Z,1002.54
2023-04-14T06:27:45.777Z,1002.48
2023-04-14T06:28:45.785Z,1002.48
2023-04-14T06:29:45.753Z,1002.51
2023-04-14T06:30:45.749Z,1002.49
2023-04-14T06:31:45.785Z,1002.50
2023-04-14T06:32:45.765Z,1002.49
2023-04-14T06:33:45.734Z,1002.44
2023-04-14T06:34:45.735Z,1002.49
2023-04-14T06:35:45.687Z,1002.49
2023-04-14T06:36:45.695Z,1002.49
2023-04-14T06:37:45.670Z,1002.53
2023-04-14T06:38:45.673Z,1002.50
2023-04-14T06:39:45.636Z,1002.50
2023-04-14T06:40:45.646Z,1002.54
2023-04-14T06:41:45.672Z,1002.51
2023-04-14T06:42:45.612Z,1002.53
2023-04-14T06:43:45.654Z,1002.53
2023-04-14T06:44:45.685Z,1002.51
2023-04-14T06:45:45.607Z,1002.52
2023-04-14T06:46:45.574Z,1002.56
2023-04-14T06:47:45.575Z,1002.54
2023-04-14T06:48:45.580Z,1002.49
2023-04-14T06:49:45.586Z,1002.55
2023-04-14T06:50:45.535Z,1002.52
2023-04-14T06:51:45.507Z,1002.55
2023-04-14T06:52:45.523Z,1002.57
2023-04-14T06:53:45.512Z,1002.61
2023-04-14T06:54:45.505Z,1002.60
2023-04-14T06:55:45.466Z,1002.60
2023-04-14T06:56:45.619Z,1002.60
2023-04-14T06:57:45.452Z,1002.59
2023-04-14T06:58:45.585Z,1002.60
2023-04-14T06:59:45.432Z,1002.61
2023-04-14T07:00:45.419Z,1002.63
2023-04-14T07:01:45.512Z,1002.56
2023-04-14T07:02:45.451Z,1002.56
2023-04-14T07:03:45.409Z,1002.59
2023-04-14T07:04:45.408Z,1002.58
2023-04-14T07:05:45.380Z,1002.57
2023-04-14T07:06:45.348Z,1002.57
2023-04-14T07:07:45.336Z,1002.53
2023-04-14T07:08:45.348Z,1002.53
2023-04-14T07:09:45.437Z,1002.51
2023-04-14T07:10:45.305Z,1002.48
2023-04-14T07:11:45.283Z,1002.44
2023-04-14T07:12:45.289Z,1002.45
2023-04-14T07:13:45.284Z,1002.44
2023-04-14T07:14:45.256Z,1002.45
2023-04-14T07:15:45.315Z,1002.45
2023-04-14T07:16:45.229Z,1002.43
2023-04-14T07:17:45.246Z,1002.44
2023-04-14T07:18:45.242Z,1002.46
2023-04-14T07:19:45.193Z,1002.45
2023-04-14T07:20:45.199Z,1002.41
2023-04-14T07:21:45.184Z,1002.45
2023-04-14T07:22:45.175Z,1002.43
2023-04-14T07:23:45.181Z,1002.43
2023-04-14T07:24:45.132Z,1002.43
2023-04-14T07:25:45.128Z,1002.40
2023-04-14T07:26:45.111Z,1002.43
2023-04-14T07:27:52.981Z,1002.46
2023-04-14T07:28:45.132Z,1002.46
2023-04-14T07:29:45.072Z,1002.45
2023-04-14T07:30:45.068Z,1002.42
2023-04-14T07:31:45.104Z,1002.44
2023-04-14T07:32:45.088Z,1002.44
2023-04-14T07:33:45.056Z,1002.42
2023-04-14T07:34:45.024Z,1002.46
2023-04-14T07:35:58.228Z,1002.43
2023-04-14T07:36:45.004Z,1002.43
2023-04-14T07:37:44.994Z,1002.42
2023-04-14T07:38:45.001Z,1002.39
2023-04-14T07:39:44.970Z,1002.36
2023-04-14T07:40:44.958Z,1002.33
2023-04-14T07:41:44.953Z,1002.33
2023-04-14T07:42:44.943Z,1002.29
2023-04-14T07:43:44.966Z,1002.35
2023-04-14T07:44:44.914Z,1002.32
2023-04-14T07:45:44.898Z,1002.35
2023-04-14T07:46:45.166Z,1002.39
2023-04-14T07:47:44.913Z,1002.37
2023-04-14T07:48:44.905Z,1002.38
2023-04-14T07:49:44.857Z,1002.32
2023-04-14T07:50:44.850Z,1002.37
2023-04-14T07:51:44.828Z,1002.39
2023-04-14T07:52:44.823Z,1002.36
2023-04-14T07:53:44.887Z,1002.39
2023-04-14T07:54:44.809Z,1002.40
2023-04-14T07:55:44.791Z,1002.41
2023-04-14T07:56:44.786Z,1002.43
2023-04-14T07:57:44.773Z,1002.43
2023-04-14T07:58:44.789Z,1002.48
2023-04-14T07:59:44.756Z,1002.48
2023-04-14T08:00:44.734Z,1002.48
2023-04-14T08:01:44.810Z,1002.49
2023-04-14T08:02:44.891Z,1002.47
2023-04-14T08:03:45.679Z,1002.44
2023-04-14T08:04:44.697Z,1002.45
2023-04-14T08:05:44.773Z,1002.48
2023-04-14T08:06:44.750Z,1002.45
2023-04-14T08:07:44.681Z,1002.44
2023-04-14T08:08:44.672Z,1002.47
2023-04-14T08:09:44.642Z,1002.41
2023-04-14T08:10:44.703Z,1002.44
2023-04-14T08:11:44.686Z,1002.44
2023-04-14T08:12:44.670Z,1002.47
2023-04-14T08:13:44.667Z,1002.45
2023-04-14T08:14:44.593Z,1002.45
2023-04-14T08:15:44.606Z,1002.43
2023-04-14T08:16:44.576Z,1002.39
2023-04-14T08:17:44.558Z,1002.42
2023-04-14T08:18:44.547Z,1002.40
2023-04-14T08:19:44.530Z,1002.44
2023-04-14T08:20:44.514Z,1002.36
2023-04-14T08:21:44.504Z,1002.38
2023-04-14T08:22:44.489Z,1002.43
2023-04-14T08:23:44.501Z,1002.42
2023-04-14T08:24:44.464Z,1002.41
2023-04-14T08:25:44.505Z,1002.43
2023-04-14T08:26:44.445Z,1002.40
2023-04-14T08:27:44.425Z,1002.40
2023-04-14T08:28:44.447Z,1002.39
2023-04-14T08:29:44.413Z,1002.41
2023-04-14T08:30:44.409Z,1002.39
2023-04-14T08:31:44.454Z,1002.39
2023-04-14T08:32:44.416Z,1002.33
2023-04-14T08:33:44.378Z,1002.33
2023-04-14T08:35:38.316Z,1002.36
2023-04-14T08:35:46.477Z,1002.38
2023-04-14T08:36:44.337Z,1002.35
2023-04-14T08:37:44.321Z,1002.38
2023-04-14T08:38:44.332Z,1002.40
2023-04-14T08:39:44.301Z,1002.37
2023-04-14T08:40:44.302Z,1002.38
2023-04-14T08:41:44.269Z,1002.43
2023-04-14T08:42:44.261Z,1002.34
2023-04-14T08:43:44.276Z,1002.37
2023-04-14T08:44:44.250Z,1002.38
2023-04-14T08:45:44.264Z,1002.39
2023-04-14T08:46:44.221Z,1002.40
2023-04-14T08:47:44.307Z,1002.41
2023-04-14T08:48:44.210Z,1002.43
2023-04-14T08:49:44.175Z,1002.42
2023-04-14T08:50:44.186Z,1002.47
2023-04-14T08:51:44.154Z,1002.44
2023-04-14T08:52:44.149Z,1002.41
2023-04-14T08:53:44.155Z,1002.42
2023-04-14T08:54:44.128Z,1002.40
2023-04-14T08:55:44.131Z,1002.45
2023-04-14T08:56:44.123Z,1002.40
2023-04-14T08:57:44.094Z,1002.40
2023-04-14T08:58:44.109Z,1002.37
2023-04-14T08:59:44.085Z,1002.35
2023-04-14T09:00:44.105Z,1002.37
2023-04-14T09:01:44.154Z,1002.36
2023-04-14T09:02:44.331Z,1002.33
2023-04-14T09:03:44.355Z,1002.35
2023-04-14T09:04:44.056Z,1002.32
2023-04-14T09:05:44.007Z,1002.30
2023-04-14T09:06:44.005Z,1002.31
2023-04-14T09:07:43.987Z,1002.33
2023-04-14T09:08:44.003Z,1002.38
2023-04-14T09:09:43.990Z,1002.36
2023-04-14T09:10:43.959Z,1002.34
2023-04-14T09:11:43.938Z,1002.34
2023-04-14T09:12:43.937Z,1002.34
2023-04-14T09:13:44.005Z,1002.31
2023-04-14T09:14:43.913Z,1002.32
2023-04-14T09:15:43.899Z,1002.32
2023-04-14T09:16:43.958Z,1002.26
2023-04-14T09:17:43.924Z,1002.23
2023-04-14T09:18:43.883Z,1002.25
2023-04-14T09:20:35.654Z,1002.20
2023-04-14T09:20:44.429Z,1002.20
2023-04-14T09:21:53.287Z,1002.22
2023-04-14T09:22:43.827Z,1002.22
2023-04-14T09:23:43.822Z,1002.24
2023-04-14T09:24:43.798Z,1002.23
2023-04-14T09:25:43.785Z,1002.18
2023-04-14T09:26:43.773Z,1002.18
2023-04-14T09:27:43.764Z,1002.18
2023-04-14T09:28:43.769Z,1002.22
2023-04-14T09:29:43.742Z,1002.19
2023-04-14T09:30:45.216Z,1002.25
2023-04-14T09:31:43.820Z,1002.24
2023-04-14T09:32:43.758Z,1002.21
2023-04-14T09:33:43.732Z,1002.20
2023-04-14T09:34:43.676Z,1002.18
2023-04-14T09:35:43.672Z,1002.21
2023-04-14T09:36:43.653Z,1002.21
2023-04-14T09:37:43.678Z,1002.19
2023-04-14T09:38:43.650Z,1002.21
2023-04-14T09:39:43.624Z,1002.23
2023-04-14T09:40:43.606Z,1002.20
2023-04-14T09:41:43.605Z,1002.16
2023-04-14T09:42:43.598Z,1002.19
2023-04-14T09:43:43.599Z,1002.20
2023-04-14T09:44:43.564Z,1002.21
2023-04-14T09:45:43.561Z,1002.22
2023-04-14T09:46:43.650Z,1002.18
2023-04-14T09:47:43.585Z,1002.15
2023-04-14T09:48:43.537Z,1002.13
2023-04-14T09:49:43.514Z,1002.16
2023-04-14T09:50:43.498Z,1002.16
2023-04-14T09:51:43.491Z,1002.14
2023-04-14T09:52:43.477Z,1002.15
2023-04-14T09:53:44.669Z,1002.12
2023-04-14T09:54:43.484Z,1002.08
2023-04-14T09:55:43.446Z,1002.12
2023-04-14T09:56:43.428Z,1002.10
2023-04-14T09:57:43.432Z,1002.03
2023-04-14T09:58:43.477Z,1002.03
2023-04-14T09:59:43.406Z,1001.99
2023-04-14T10:00:43.397Z,1001.98
2023-04-14T10:01:43.408Z,1002.00
2023-04-14T10:02:43.541Z,1002.01
2023-04-14T10:03:43.508Z,1002.03
2023-04-14T10:04:43.426Z,1001.96
2023-04-14T10:05:44.188Z,1001.96
2023-04-14T10:06:43.357Z,1001.93
2023-04-14T10:07:43.329Z,1001.93
2023-04-14T10:08:43.345Z,1001.92
2023-04-14T10:09:43.294Z,1001.90
2023-04-14T10:10:43.303Z,1001.86
2023-04-14T10:11:43.279Z,1001.82
2023-04-14T10:12:43.301Z,1001.90
2023-04-14T10:13:43.316Z,1001.84
2023-04-14T10:14:43.327Z,1001.87
2023-04-14T10:15:43.318Z,1001.83
2023-04-14T10:16:43.268Z,1001.83
2023-04-14T10:17:43.279Z,1001.83
2023-04-14T10:18:43.236Z,1001.84
2023-04-14T10:19:44.292Z,1001.82
2023-04-14T10:20:43.192Z,1001.84
2023-04-14T10:21:43.211Z,1001.86
2023-04-14T10:22:43.214Z,1001.86
2023-04-14T10:23:43.254Z,1001.83
2023-04-14T10:24:43.142Z,1001.82
2023-04-14T10:25:43.120Z,1001.83
2023-04-14T10:26:43.143Z,1001.85
2023-04-14T10:27:43.118Z,1001.84
2023-04-14T10:28:43.173Z,1001.85
2023-04-14T10:29:43.104Z,1001.87
2023-04-14T10:30:43.095Z,1001.86
2023-04-14T10:31:43.152Z,1001.86
2023-04-14T10:32:43.206Z,1001.89
2023-04-14T10:33:43.084Z,1001.89
2023-04-14T10:34:43.053Z,1001.90
2023-04-14T10:35:43.033Z,1001.88
2023-04-14T10:36:43.081Z,1001.93
2023-04-14T10:37:43.012Z,1001.88
2023-04-14T10:38:43.020Z,1001.86
2023-04-14T10:39:43.033Z,1001.83
2023-04-14T10:40:42.996Z,1001.83
2023-04-14T10:41:42.981Z,1001.76
2023-04-14T10:42:42.952Z,1001.75
2023-04-14T10:43:42.994Z,1001.72
2023-04-14T10:44:42.943Z,1001.69
2023-04-14T10:45:42.932Z,1001.65
2023-04-14T10:46:42.951Z,1001.68
2023-04-14T10:47:42.976Z,1001.66
2023-04-14T10:48:42.943Z,1001.65
2023-04-14T10:49:42.946Z,1001.68
2023-04-14T10:50:43.089Z,1001.65
2023-04-14T10:51:42.876Z,1001.59
2023-04-14T10:52:42.849Z,1001.59
2023-04-14T10:53:42.934Z,1001.60
2023-04-14T10:54:42.831Z,1001.60
2023-04-14T10:55:51.748Z,1001.57
2023-04-14T10:56:42.904Z,1001.56
2023-04-14T10:57:42.806Z,1001.57
2023-04-14T10:58:42.866Z,1001.55
2023-04-14T10:59:42.852Z,1001.57
2023-04-14T11:00:42.801Z,1001.61
2023-04-14T11:01:42.727Z,1001.59
2023-04-14T11:02:42.828Z,1001.63
2023-04-14T11:03:42.846Z,1001.60
2023-04-14T11:04:42.687Z,1001.62
2023-04-14T11:05:42.672Z,1001.61
2023-04-14T11:06:42.658Z,1001.61
2023-04-14T11:07:42.648Z,1001.60
2023-04-14T11:08:42.658Z,1001.55
2023-04-14T11:09:42.628Z,1001.62
2023-04-14T11:10:42.636Z,1001.51
2023-04-14T11:11:42.607Z,1001.50
2023-04-14T11:12:42.597Z,1001.53
2023-04-14T11:13:42.608Z,1001.51
2023-04-14T11:14:42.573Z,1001.50
2023-04-14T11:15:42.566Z,1001.46
2023-04-14T11:16:50.498Z,1001.45
2023-04-14T11:17:42.654Z,1001.45
2023-04-14T11:18:45.235Z,1001.41
2023-04-14T11:19:42.520Z,1001.42
2023-04-14T11:20:42.537Z,1001.46
2023-04-14T11:21:42.497Z,1001.40
2023-04-14T11:22:42.489Z,1001.39
2023-04-14T11:23:42.501Z,1001.38
2023-04-14T11:24:42.472Z,1001.42
2023-04-14T11:25:42.463Z,1001.43
2023-04-14T11:26:42.438Z,1001.39
2023-04-14T11:27:42.441Z,1001.41
2023-04-14T11:28:42.453Z,1001.36
2023-04-14T11:29:42.413Z,1001.41
2023-04-14T11:30:42.424Z,1001.41
2023-04-14T11:31:42.473Z,1001.35
2023-04-14T11:32:42.394Z,1001.33
2023-04-14T11:33:42.669Z,1001.39
2023-04-14T11:34:42.357Z,1001.37
2023-04-14T11:35:42.355Z,1001.39
2023-04-14T11:36:42.334Z,1001.41
2023-04-14T11:37:42.326Z,1001.37
2023-04-14T11:38:42.322Z,1001.40
2023-04-14T11:39:42.296Z,1001.33
2023-04-14T11:40:42.291Z,1001.30
2023-04-14T11:41:42.280Z,1001.35
2023-04-14T11:42:42.262Z,1001.33
2023-04-14T11:43:42.271Z,1001.32
2023-04-14T11:44:42.232Z,1001.32
2023-04-14T11:45:42.242Z,1001.35
2023-04-14T11:46:42.290Z,1001.34
2023-04-14T11:47:42.236Z,1001.31
2023-04-14T11:48:42.226Z,1001.27
2023-04-14T11:49:42.216Z,1001.27
2023-04-14T11:50:42.170Z,1001.29
2023-04-14T11:51:42.190Z,1001.24
2023-04-14T11:52:42.159Z,1001.21
2023-04-14T11:53:42.173Z,1001.26
2023-04-14T11:54:42.192Z,1001.24
2023-04-14T11:55:42.118Z,1001.21
2023-04-14T11:56:42.118Z,1001.19
2023-04-14T11:57:42.101Z,1001.21
2023-04-14T11:58:42.155Z,1001.20
2023-04-14T11:59:42.093Z,1001.15
2023-04-14T12:00:42.086Z,1001.14
2023-04-14T12:01:42.096Z,1001.18
2023-04-14T12:02:42.118Z,1001.17
2023-04-14T12:03:42.232Z,1001.15
2023-04-14T12:04:42.212Z,1001.20
2023-04-14T12:05:42.129Z,1001.20